Terminal Aerodrome Forecast
Issued by NWS Goodland, KS

Home | Current Version | Previous Version | Text Only | Print | Product List | Glossary On
Versions: 1 2 3 4 5 6 7 8 9 10 11 12 13 14 15 16 17
547
FTUS43 KGLD 231727
TAFGLD
TAF
KGLD 231727Z 2318/2418 09018G27KT 1SM BR OVC002
      TEMPO 2318/2320 1/2SM FG
     FM232100 07020G30KT 3SM BR VCSH BKN003
     FM240000 03020G30KT 1 1/2SM -SHRASN BKN003
     FM240300 01020G30KT 1SM -SHSN BKN003
     FM240600 36015G25KT 3SM -SN BKN007=

USA.gov is the U.S. government's official web portal to all federal, state and local government web resources and services.